地図

経路データ

SID SEASON NUMBER BASIN SUBBASIN NAME ISO_TIME NATURE LAT LON WMO_WIND WMO_PRES WMO_AGENCY TRACK_TYPE DIST2LAND LANDFALL IFLAG USA_AGENCY USA_ATCF_ID USA_LAT USA_LON USA_RECORD USA_STATUS USA_WIND USA_PRES USA_SSHS USA_R34_NE USA_R34_SE USA_R34_SW USA_R34_NW USA_R50_NE USA_R50_SE USA_R50_SW USA_R50_NW USA_R64_NE USA_R64_SE USA_R64_SW USA_R64_NW USA_POCI USA_ROCI USA_RMW USA_EYE TOKYO_LAT TOKYO_LON TOKYO_GRADE TOKYO_WIND TOKYO_PRES TOKYO_R50_DIR TOKYO_R50_LONG TOKYO_R50_SHORT TOKYO_R30_DIR TOKYO_R30_LONG TOKYO_R30_SHORT TOKYO_LAND CMA_LAT CMA_LON CMA_CAT CMA_WIND CMA_PRES HKO_LAT HKO_LON HKO_CAT HKO_WIND HKO_PRES NEWDELHI_LAT NEWDELHI_LON NEWDELHI_GRADE NEWDELHI_WIND NEWDELHI_PRES NEWDELHI_CI NEWDELHI_DP NEWDELHI_POCI REUNION_LAT REUNION_LON REUNION_TYPE REUNION_WIND REUNION_PRES REUNION_TNUM REUNION_CI REUNION_RMW REUNION_R34_NE REUNION_R34_SE REUNION_R34_SW REUNION_R34_NW REUNION_R50_NE REUNION_R50_SE REUNION_R50_SW REUNION_R50_NW REUNION_R64_NE REUNION_R64_SE REUNION_R64_SW REUNION_R64_NW BOM_LAT BOM_LON BOM_TYPE BOM_WIND BOM_PRES BOM_TNUM BOM_CI BOM_RMW BOM_R34_NE BOM_R34_SE BOM_R34_SW BOM_R34_NW BOM_R50_NE BOM_R50_SE BOM_R50_SW BOM_R50_NW BOM_R64_NE BOM_R64_SE BOM_R64_SW BOM_R64_NW BOM_ROCI BOM_POCI BOM_EYE BOM_POS_METHOD BOM_PRES_METHOD NADI_LAT NADI_LON NADI_CAT NADI_WIND NADI_PRES WELLINGTON_LAT WELLINGTON_LON WELLINGTON_WIND WELLINGTON_PRES DS824_LAT DS824_LON DS824_STAGE DS824_WIND DS824_PRES TD9636_LAT TD9636_LON TD9636_STAGE TD9636_WIND TD9636_PRES TD9635_LAT TD9635_LON TD9635_WIND TD9635_PRES TD9635_ROCI NEUMANN_LAT NEUMANN_LON NEUMANN_CLASS NEUMANN_WIND NEUMANN_PRES MLC_LAT MLC_LON MLC_CLASS MLC_WIND MLC_PRES USA_GUST BOM_GUST BOM_GUST_PER REUNION_GUST REUNION_GUST_PER USA_SEAHGT USA_SEARAD_NE USA_SEARAD_SE USA_SEARAD_SW USA_SEARAD_NW STORM_SPEED STORM_DIR
1958257N17293 1958 83 NA CS GERDA 1958-09-14 06:00:00 TS 17.4000 -67.5000 40 hurdat_atl main 64 64 O_____________ hurdat_atl AL071958 17.4000 -67.5000 TS 40 0 20 272
1958257N17293 1958 83 NA CS GERDA 1958-09-14 09:00:00 TS 17.4344 -68.5216 main 90 78 P_____________ AL071958 17.4344 -68.5216 TS 42 0 18 273
1958257N17293 1958 83 NA CS GERDA 1958-09-14 12:00:00 TS 17.5000 -69.4000 45 hurdat_atl main 100 70 O_____________ hurdat_atl AL071958 17.5000 -69.4000 TS 45 0 15 277
1958257N17293 1958 83 NA CS GERDA 1958-09-14 15:00:00 TS 17.6255 -70.0478 main 70 44 P_____________ AL071958 17.6255 -70.0478 TS 47 0 12 285
1958257N17293 1958 83 NA CS GERDA 1958-09-14 18:00:00 TS 17.8000 -70.6000 50 1004 hurdat_atl main 45 0 O_____________ hurdat_atl AL071958 17.8000 -70.6000 TS 50 1004 0 12 289
1958257N17293 1958 83 NA CS GERDA 1958-09-14 21:00:00 TS 18.0000 -71.2000 50 1004 hurdat_atl main 0 0 O_____________ hurdat_atl AL071958 18.0000 -71.2000 L TS 50 1004 0 13 284
1958257N17293 1958 83 NA CS GERDA 1958-09-15 00:00:00 TS 18.1000 -71.9000 40 hurdat_atl main 0 0 O_____________ hurdat_atl AL071958 18.1000 -71.9000 TS 40 0 13 279
1958257N17293 1958 83 NA CS GERDA 1958-09-15 03:00:00 TS 18.1989 -72.5719 main 0 0 P_____________ AL071958 18.1989 -72.5719 TS 40 0 14 278
1958257N17293 1958 83 NA CS GERDA 1958-09-15 06:00:00 NR 18.3000 -73.4000 40 hurdat_atl main 0 0 O_____________ hurdat_atl AL071958 18.3000 -73.4000 DB 40 -3 19 276
1958257N17293 1958 83 NA CS GERDA 1958-09-15 09:00:00 NR 18.4001 -74.5602 main 10 10 P_____________ AL071958 18.4001 -74.5602 DB 37 -3 24 275
1958257N17293 1958 83 NA CS GERDA 1958-09-15 12:00:00 NR 18.5000 -75.9000 35 hurdat_atl main 53 22 O_____________ hurdat_atl AL071958 18.5000 -75.9000 DB 35 -3 25 275
1958257N17293 1958 83 NA CS GERDA 1958-09-15 15:00:00 NR 18.6065 -77.2200 main 22 22 P_____________ AL071958 18.6065 -77.2200 DB 35 -3 26 274
1958257N17293 1958 83 NA CS GERDA 1958-09-15 18:00:00 NR 18.7000 -78.6000 35 hurdat_atl main 46 46 O_____________ hurdat_atl AL071958 18.7000 -78.6000 DB 35 -3 27 274
1958257N17293 1958 83 NA CS GERDA 1958-09-15 21:00:00 NR 18.7865 -80.0270 main 181 181 P_____________ AL071958 18.7865 -80.0270 DB 32 -3 27 272
1958257N17293 1958 83 NA CS GERDA 1958-09-16 00:00:00 NR 18.8000 -81.5000 30 hurdat_atl main 320 293 O_____________ hurdat_atl AL071958 18.8000 -81.5000 DB 30 -3 28 268
1958257N17293 1958 83 NA CS GERDA 1958-09-16 03:00:00 NR 18.6873 -83.0304 main 302 292 P_____________ AL071958 18.6873 -83.0304 DB 30 -3 29 264
1958257N17293 1958 83 NA CS GERDA 1958-09-16 06:00:00 NR 18.5000 -84.5000 30 hurdat_atl main 291 211 O_____________ hurdat_atl AL071958 18.5000 -84.5000 DB 30 -3 27 262
1958257N17293 1958 83 NA CS GERDA 1958-09-16 09:00:00 NR 18.3138 -85.8096 main 201 95 P_____________ AL071958 18.3138 -85.8096 DB 27 -3 24 260
1958257N17293 1958 83 NA CS GERDA 1958-09-16 12:00:00 NR 18.1000 -87.0000 25 hurdat_atl main 85 15 O_____________ hurdat_atl AL071958 18.1000 -87.0000 DB 25 -3 23 258
1958257N17293 1958 83 NA CS GERDA 1958-09-16 15:00:00 NR 17.8200 -88.1904 main 10 0 P_____________ AL071958 17.8200 -88.1904 DB 25 -3 22 257
1958257N17293 1958 83 NA NA GERDA 1958-09-16 18:00:00 NR 17.6000 -89.2000 25 hurdat_atl main 0 0 O_____________ hurdat_atl AL071958 17.6000 -89.2000 DB 25 -3 17 260
1958257N17293 1958 83 NA NA GERDA 1958-09-16 21:00:00 NR 17.5317 -89.9470 main 0 0 P_____________ AL071958 17.5317 -89.9470 DB 25 -3 12 270
1958257N17293 1958 83 NA NA GERDA 1958-09-17 00:00:00 NR 17.6000 -90.5000 25 hurdat_atl main 0 0 O_____________ hurdat_atl AL071958 17.6000 -90.5000 DB 25 -3 10 283
1958257N17293 1958 83 NA NA GERDA 1958-09-17 03:00:00 NR 17.7548 -91.0024 main 0 0 P_____________ AL071958 17.7548 -91.0024 DB 25 -3 9 295
1958257N17293 1958 83 NA NA GERDA 1958-09-17 06:00:00 NR 18.0000 -91.4000 25 hurdat_atl main 0 0 O_____________ hurdat_atl AL071958 18.0000 -91.4000 DB 25 -3 9 307
1958257N17293 1958 83 NA NA GERDA 1958-09-17 09:00:00 NR 18.2774 -91.7301 main 0 0 P_____________ AL071958 18.2774 -91.7301 DB 25 -3 8 317
1958257N17293 1958 83 NA GM GERDA 1958-09-17 12:00:00 NR 18.6000 -92.0000 25 hurdat_atl main 0 0 O_____________ hurdat_atl AL071958 18.6000 -92.0000 DB 25 -3 8 323
1958257N17293 1958 83 NA GM GERDA 1958-09-17 15:00:00 NR 18.9499 -92.2576 main 33 33 P_____________ AL071958 18.9499 -92.2576 DB 25 -3 8 326
1958257N17293 1958 83 NA GM GERDA 1958-09-17 18:00:00 NR 19.3000 -92.5000 25 hurdat_atl main 78 78 O_____________ hurdat_atl AL071958 19.3000 -92.5000 DB 25 -3 8 325
1958257N17293 1958 83 NA GM GERDA 1958-09-17 21:00:00 NR 19.6150 -92.7501 main 112 112 P_____________ AL071958 19.6150 -92.7501 DB 25 -3 8 322
1958257N17293 1958 83 NA GM GERDA 1958-09-18 00:00:00 NR 19.9000 -93.0000 25 hurdat_atl main 148 148 O_____________ hurdat_atl AL071958 19.9000 -93.0000 DB 25 -3 7 320
1958257N17293 1958 83 NA GM GERDA 1958-09-18 03:00:00 NR 20.1650 -93.2501 main 189 189 P_____________ AL071958 20.1650 -93.2501 DB 25 -3 7 317
1958257N17293 1958 83 NA GM GERDA 1958-09-18 06:00:00 NR 20.4000 -93.5000 25 hurdat_atl main 218 218 O_____________ hurdat_atl AL071958 20.4000 -93.5000 DB 25 -3 7 313
1958257N17293 1958 83 NA GM GERDA 1958-09-18 09:00:00 NR 20.6075 -93.7576 main 251 251 P_____________ AL071958 20.6075 -93.7576 DB 25 -3 6 311
1958257N17293 1958 83 NA GM GERDA 1958-09-18 12:00:00 NR 20.8000 -94.0000 25 hurdat_atl main 266 255 O_____________ hurdat_atl AL071958 20.8000 -94.0000 DB 25 -3 6 313
1958257N17293 1958 83 NA GM GERDA 1958-09-18 15:00:00 NR 20.9999 -94.2076 main 260 250 P_____________ AL071958 20.9999 -94.2076 DB 25 -3 5 317
1958257N17293 1958 83 NA GM GERDA 1958-09-18 18:00:00 NR 21.2000 -94.4000 25 hurdat_atl main 253 251 O_____________ hurdat_atl AL071958 21.2000 -94.4000 DB 25 -3 6 319
1958257N17293 1958 83 NA GM GERDA 1958-09-18 21:00:00 NR 21.4150 -94.6000 main 251 251 P_____________ AL071958 21.4150 -94.6000 DB 25 -3 5 317
1958257N17293 1958 83 NA GM GERDA 1958-09-19 00:00:00 NR 21.6000 -94.8000 25 hurdat_atl main 251 237 O_____________ hurdat_atl AL071958 21.6000 -94.8000 DB 25 -3 5 309
1958257N17293 1958 83 NA GM GERDA 1958-09-19 03:00:00 NR 21.7074 -94.9852 main 237 218 P_____________ AL071958 21.7074 -94.9852 DB 25 -3 4 298
1958257N17293 1958 83 NA GM GERDA 1958-09-19 06:00:00 NR 21.8000 -95.2000 25 hurdat_atl main 218 188 O_____________ hurdat_atl AL071958 21.8000 -95.2000 DB 25 -3 5 296
1958257N17293 1958 83 NA GM GERDA 1958-09-19 09:00:00 NR 21.9350 -95.4776 main 188 164 P_____________ AL071958 21.9350 -95.4776 DB 27 -3 6 298
1958257N17293 1958 83 NA GM GERDA 1958-09-19 12:00:00 TS 22.1000 -95.8000 30 hurdat_atl main 164 140 O_____________ hurdat_atl AL071958 22.1000 -95.8000 TD 30 -1 7 298
1958257N17293 1958 83 NA GM GERDA 1958-09-19 15:00:00 TS 22.2625 -96.1428 main 146 128 P_____________ AL071958 22.2625 -96.1428 TD 32 -1 8 302
1958257N17293 1958 83 NA GM GERDA 1958-09-19 18:00:00 TS 22.5000 -96.5000 35 1004 hurdat_atl main 128 92 O_____________ hurdat_atl AL071958 22.5000 -96.5000 TS 35 1004 0 9 312
1958257N17293 1958 83 NA GM GERDA 1958-09-19 21:00:00 TS 22.8701 -96.8723 main 92 61 P_____________ AL071958 22.8701 -96.8723 TS 37 1002 0 10 321
1958257N17293 1958 83 NA GM GERDA 1958-09-20 00:00:00 TS 23.3000 -97.2000 40 1001 hurdat_atl main 61 40 O_____________ hurdat_atl AL071958 23.3000 -97.2000 TS 40 1001 0 9 327
1958257N17293 1958 83 NA GM GERDA 1958-09-20 03:00:00 TS 23.6534 -97.4313 main 40 20 P_____________ AL071958 23.6534 -97.4313 TS 40 1001 0 9 335
1958257N17293 1958 83 NA GM GERDA 1958-09-20 06:00:00 TS 24.1000 -97.6000 40 hurdat_atl main 20 0 I_____________ hurdat_atl AL071958 24.1000 -97.6000 TS 40 1002 0 11 344
1958257N17293 1958 83 NA NA GERDA 1958-09-20 08:00:00 TS 24.5000 -97.7000 40 hurdat_atl main 0 0 I_____________ hurdat_atl AL071958 24.5000 -97.7000 L TS 40 1002 0 13 349
1958257N17293 1958 83 NA NA GERDA 1958-09-20 09:00:00 TS 24.7299 -97.7377 main 0 0 P_____________ AL071958 24.7299 -97.7377 TS 38 1002 0 15 355
1958257N17293 1958 83 NA NA GERDA 1958-09-20 12:00:00 TS 25.5000 -97.8000 35 1003 hurdat_atl main 0 0 O_____________ hurdat_atl AL071958 25.5000 -97.8000 TS 35 1003 0 15 357
1958257N17293 1958 83 NA NA GERDA 1958-09-20 15:00:00 TS 26.2571 -97.8348 main 0 0 P_____________ AL071958 26.2571 -97.8348 TS 32 1003 -1 15 0
1958257N17293 1958 83 NA NA GERDA 1958-09-20 18:00:00 TS 27.0000 -97.8000 30 1003 hurdat_atl main 0 0 O_____________ hurdat_atl AL071958 27.0000 -97.8000 TD 30 1003 -1 15 5
1958257N17293 1958 83 NA NA GERDA 1958-09-20 21:00:00 TS 27.7225 -97.6875 main 0 0 P_____________ AL071958 27.7225 -97.6875 TD 30 -1 14 11
1958257N17293 1958 83 NA NA GERDA 1958-09-21 00:00:00 TS 28.4000 -97.5000 30 hurdat_atl main 0 0 O_____________ hurdat_atl AL071958 28.4000 -97.5000 TD 30 -1 14 14
1958257N17293 1958 83 NA NA GERDA 1958-09-21 03:00:00 TS 29.0372 -97.3020 main 0 0 P_____________ AL071958 29.0372 -97.3020 TD 27 -1 13 20
1958257N17293 1958 83 NA NA GERDA 1958-09-21 06:00:00 TS 29.6000 -97.0000 25 hurdat_atl main 0 0 O_____________ hurdat_atl AL071958 29.6000 -97.0000 TD 25 -1 12 31
1958257N17293 1958 83 NA NA GERDA 1958-09-21 09:00:00 TS 30.0948 -96.5674 main 0 0 P_____________ AL071958 30.0948 -96.5674 TD 25 -1 13 44
1958257N17293 1958 83 NA NA GERDA 1958-09-21 12:00:00 TS 30.5000 -96.0000 25 hurdat_atl main 0 0 O_____________ hurdat_atl AL071958 30.5000 -96.0000 TD 25 -1 13 54
1958257N17293 1958 83 NA NA GERDA 1958-09-21 15:00:00 TS 30.8523 -95.3450 main 0 0 P_____________ AL071958 30.8523 -95.3450 TD 25 -1 13 63
1958257N17293 1958 83 NA NA GERDA 1958-09-21 18:00:00 TS 31.1000 -94.6000 25 hurdat_atl main 0 0 O_____________ hurdat_atl AL071958 31.1000 -94.6000 TD 25 -1 14 74
1958257N17293 1958 83 NA NA GERDA 1958-09-21 21:00:00 TS 31.2335 -93.8099 main 0 0 P_____________ AL071958 31.2335 -93.8099 TD 25 -1 14 82
1958257N17293 1958 83 NA NA GERDA 1958-09-22 00:00:00 TS 31.3000 -93.0000 25 hurdat_atl main 0 O_____________ hurdat_atl AL071958 31.3000 -93.0000 TD 25 -1 14 85

IBTrACS Databaseについて

本データベースは、米国NOAAが公開する1842年以降の世界の熱帯低気圧のベストトラックデータアーカイブInternational Best Track Archive for Climate Stewardship (IBTrACS)を、ウェブで閲覧しやすい形式に変換したものです。

最終更新日:2021-12-03